Time;durP1;ratioP1;P1;durP2;ratioP2;P2;SDS_P1;SDS_P2;PMS_P1;PMS_P2;Temp;Humidity;BMP_temperature;BMP_pressure;BME280_temperature;BME280_humidity;BME280_pressure;Samples;Min_cycle;Max_cycle;Signal;HPM_P1;HPM_P2
2022/07/14 00:00:21;;;;;;;2.15;1.00;;;21.90;67.50;;;21.98;45.05;97529.06;4953465;28;20086;-39
2022/07/14 00:02:47;;;;;;;2.55;1.00;;;21.90;67.90;;;21.93;45.40;97527.63;4952520;28;20529;-39
2022/07/14 00:05:13;;;;;;;1.90;1.08;;;21.80;68.50;;;21.84;45.60;97512.25;4948991;28;20050;-38
2022/07/14 00:07:39;;;;;;;1.95;1.20;;;21.80;68.80;;;21.86;46.34;97518.34;4954055;28;20391;-38
2022/07/14 00:10:05;;;;;;;1.20;1.10;;;21.80;69.90;;;21.83;46.69;97512.38;4951274;28;20399;-39
2022/07/14 00:12:31;;;;;;;2.00;1.00;;;21.70;70.30;;;21.77;46.57;97508.38;4950493;28;20146;-38
2022/07/14 00:14:57;;;;;;;1.65;0.93;;;21.70;70.90;;;21.70;47.04;97508.00;4952368;28;20035;-38
2022/07/14 00:17:22;;;;;;;1.38;0.90;;;21.60;70.60;;;21.67;47.10;97512.75;4951116;28;20488;-39
2022/07/14 00:19:48;;;;;;;4.10;1.15;;;21.60;70.90;;;21.60;47.51;97511.53;4951492;28;20110;-38
2022/07/14 00:22:14;;;;;;;1.35;0.75;;;21.50;71.60;;;21.50;48.45;97514.97;4947779;28;20435;-39
2022/07/14 00:24:39;;;;;;;1.00;0.90;;;21.40;72.20;;;21.35;48.92;97497.34;4954524;28;20031;-38
2022/07/14 00:27:05;;;;;;;1.42;0.80;;;21.40;72.60;;;21.34;48.88;97507.25;4952943;28;20067;-39
2022/07/14 00:29:31;;;;;;;1.00;0.90;;;21.30;72.60;;;21.29;49.33;97506.75;4931683;28;20279;-38
2022/07/14 00:31:56;;;;;;;1.35;0.70;;;21.20;73.30;;;21.19;49.78;97499.56;4945984;28;20031;-38
2022/07/14 00:34:22;;;;;;;1.10;0.90;;;21.20;74.00;;;20.94;49.61;97466.59;4954198;28;20496;-38
2022/07/14 00:36:48;;;;;;;2.22;0.90;;;21.10;73.90;;;21.08;48.82;97493.19;4976346;23;20046;-43
2022/07/14 00:39:13;;;;;;;1.38;0.88;;;21.10;73.10;;;21.12;48.50;97499.16;4966251;28;20422;-42
2022/07/14 00:41:39;;;;;;;1.27;0.95;;;21.10;72.30;;;21.12;47.47;97494.69;4965006;28;20051;-42
2022/07/14 00:44:05;;;;;;;1.42;0.88;;;21.10;71.30;;;21.12;47.69;97491.13;4968747;28;20066;-43
2022/07/14 00:46:30;;;;;;;1.42;0.90;;;21.10;71.70;;;21.12;47.61;97504.53;4960751;28;20035;-42
2022/07/14 00:48:56;;;;;;;1.27;0.93;;;21.10;71.60;;;21.05;47.99;97506.84;4959599;28;20023;-43
2022/07/14 00:51:22;;;;;;;1.80;1.00;;;21.00;71.60;;;20.97;49.31;97504.75;4937122;28;20031;-42
2022/07/14 00:53:57;;;;;;;1.35;1.00;;;21.00;72.90;;;20.88;50.29;97501.94;4953956;28;20118;-42
2022/07/14 00:56:23;;;;;;;1.15;1.00;;;20.90;73.90;;;20.73;50.95;97502.16;4960091;28;20483;-43
2022/07/14 00:58:49;;;;;;;1.15;0.95;;;20.70;74.90;;;20.61;51.42;97495.06;4960906;28;20073;-43
2022/07/14 01:01:15;;;;;;;1.75;1.00;;;20.60;75.40;;;20.49;52.86;97498.63;4957691;28;20122;-44
2022/07/14 01:03:40;;;;;;;2.75;1.00;;;20.50;76.40;;;20.31;54.29;97499.03;4955705;28;20143;-43
2022/07/14 01:06:06;;;;;;;1.98;1.02;;;20.40;77.80;;;20.21;55.55;97504.22;4957834;28;20034;-44
2022/07/14 01:08:32;;;;;;;1.50;1.00;;;20.30;78.80;;;20.08;56.98;97497.22;4956385;28;20531;-43
2022/07/14 01:10:58;;;;;;;2.05;1.20;;;20.10;79.80;;;19.96;58.38;97504.34;4959487;28;20027;-44
2022/07/14 01:13:24;;;;;;;2.00;1.30;;;20.00;80.70;;;19.75;59.68;97493.38;4950098;28;20473;-43
2022/07/14 01:15:49;;;;;;;1.30;1.00;;;19.80;81.90;;;19.66;61.68;97505.56;4947271;28;20037;-44
2022/07/14 01:18:15;;;;;;;3.35;1.15;;;19.70;83.30;;;19.52;62.55;97501.22;4958508;28;20039;-43
2022/07/14 01:20:41;;;;;;;2.35;1.20;;;19.50;84.00;;;19.37;64.29;97505.84;4954500;28;20031;-44
2022/07/14 01:23:07;;;;;;;1.73;1.30;;;19.40;85.20;;;19.25;65.43;97502.19;4955920;28;23987;-44
2022/07/14 01:25:33;;;;;;;1.63;1.20;;;19.20;86.10;;;19.09;65.31;97493.56;4959129;28;20483;-43
2022/07/14 01:27:59;;;;;;;3.35;1.27;;;19.10;86.30;;;19.07;65.19;97498.16;4961337;28;20034;-43
2022/07/14 01:30:25;;;;;;;1.60;1.13;;;19.10;86.20;;;18.97;65.66;97494.41;4959166;28;20510;-43
2022/07/14 01:32:50;;;;;;;1.92;1.10;;;19.00;86.40;;;18.87;65.48;97492.38;4955828;28;20039;-46
2022/07/14 01:35:16;;;;;;;1.20;0.93;;;18.90;86.70;;;18.83;65.00;97495.38;4952536;28;20110;-43
2022/07/14 01:37:42;;;;;;;1.92;0.90;;;18.80;86.20;;;18.76;65.28;97484.22;4941044;28;20118;-43
2022/07/14 01:40:09;;;;;;;1.90;1.30;;;18.80;86.60;;;18.76;65.61;97494.91;4961361;28;20030;-43
2022/07/14 01:42:35;;;;;;;1.70;0.90;;;18.70;86.90;;;18.73;66.13;97496.94;4958387;28;20035;-44
2022/07/14 01:45:00;;;;;;;2.33;1.17;;;18.70;87.30;;;18.69;65.96;97488.28;4959202;28;20074;-43
2022/07/14 01:47:26;;;;;;;1.35;0.90;;;18.70;87.30;;;18.66;65.86;97491.16;4951774;28;20047;-43
2022/07/14 01:49:52;;;;;;;1.70;1.17;;;18.60;87.30;;;18.61;66.67;97495.94;4952936;28;20514;-43
2022/07/14 01:52:17;;;;;;;2.47;1.30;;;18.60;87.80;;;18.56;66.92;97490.94;4959343;28;20037;-43
2022/07/14 01:54:43;;;;;;;1.58;1.02;;;18.50;88.10;;;18.38;67.20;97468.16;4959022;28;20133;-43
2022/07/14 01:57:09;;;;;;;1.27;1.08;;;18.50;88.30;;;18.49;65.58;97485.16;4958212;28;20034;-41
2022/07/14 01:59:35;;;;;;;2.17;1.27;;;18.50;87.40;;;18.50;65.03;97486.00;4957185;28;20031;-41
2022/07/14 02:02:01;;;;;;;1.02;0.90;;;18.50;87.00;;;18.47;64.44;97486.22;4959247;28;20583;-42
2022/07/14 02:04:27;;;;;;;1.98;1.08;;;18.50;86.90;;;18.44;64.26;97484.59;4959006;28;20276;-42
2022/07/14 02:06:54;;;;;;;2.85;1.00;;;18.40;86.50;;;18.41;63.90;97478.59;4962861;28;21594;-40
2022/07/14 02:09:21;;;;;;;0.98;0.90;;;18.40;86.50;;;18.37;62.84;97467.28;4961520;28;20078;-41
2022/07/14 02:14:33;;;;;;;1.00;0.90;;;18.40;83.90;;;18.48;59.27;97477.22;4959160;28;20125;-41
2022/07/14 02:16:59;;;;;;;1.13;0.73;;;18.50;83.20;;;18.46;59.44;97468.47;4944673;28;20038;-41
2022/07/14 02:19:26;;;;;;;1.50;0.90;;;18.50;83.20;;;18.46;59.38;97468.47;4959438;28;20027;-41
2022/07/14 02:21:53;;;;;;;1.00;0.70;;;18.50;83.30;;;18.46;59.55;97472.00;4952428;28;20065;-41
2022/07/14 02:24:20;;;;;;;0.75;0.75;;;18.40;83.50;;;18.35;58.78;97457.66;4959805;28;20078;-42
2022/07/14 02:26:48;;;;;;;1.00;0.88;;;18.40;83.00;;;18.41;58.68;97465.25;4961918;28;20039;-42
2022/07/14 02:29:14;;;;;;;1.48;0.93;;;18.40;82.80;;;18.40;60.61;97468.91;4960654;28;20577;-43
2022/07/14 02:31:39;;;;;;;1.95;0.90;;;18.40;84.20;;;18.32;62.51;97464.06;4942954;28;20030;-42
2022/07/14 02:34:05;;;;;;;3.25;1.30;;;18.30;85.50;;;18.32;64.57;97466.72;4957827;28;20030;-41
2022/07/14 02:36:31;;;;;;;2.67;1.15;;;18.30;87.00;;;18.28;66.01;97460.75;4962789;28;20420;-42
2022/07/14 02:38:57;;;;;;;2.38;1.50;;;18.30;88.00;;;18.28;67.14;97462.56;4964953;28;20023;-40
2022/07/14 02:41:23;;;;;;;1.95;1.50;;;18.30;88.90;;;18.25;68.49;97460.09;4944727;28;20065;-42
2022/07/14 02:43:49;;;;;;;3.72;1.60;;;18.30;89.80;;;18.28;70.03;97465.22;4962549;28;20058;-42
2022/07/14 02:46:15;;;;;;;3.25;1.30;;;18.30;90.40;;;18.25;71.27;97460.97;4964499;28;20031;-41
2022/07/14 02:48:40;;;;;;;2.53;1.40;;;18.30;90.80;;;18.24;72.61;97461.06;4964249;28;20404;-41
2022/07/14 02:51:09;;;;;;;3.38;1.70;;;18.30;91.20;;;18.20;72.82;97463.09;4966768;28;20154;-42
2022/07/14 02:53:36;;;;;;;3.17;1.50;;;18.20;91.30;;;18.19;72.96;97463.19;4965779;28;20026;-41
2022/07/14 02:56:03;;;;;;;2.30;1.40;;;18.20;91.30;;;18.16;73.43;97460.72;4963208;28;20034;-43
2022/07/14 02:58:29;;;;;;;2.53;1.65;;;18.20;91.60;;;18.15;74.46;97467.03;4964842;28;23768;-42
2022/07/14 03:00:55;;;;;;;1.80;1.30;;;18.10;92.30;;;18.05;75.21;97456.97;4962429;28;20492;-42
2022/07/14 03:03:22;;;;;;;3.05;1.65;;;18.10;92.30;;;18.02;75.72;97458.97;4963008;28;20046;-43
2022/07/14 03:05:49;;;;;;;3.35;1.52;;;18.10;92.50;;;18.00;76.86;97461.75;4963999;28;20084;-43
2022/07/14 03:08:15;;;;;;;1.73;1.40;;;18.00;92.80;;;17.95;78.10;97463.84;4953178;28;20137;-43
2022/07/14 03:10:41;;;;;;;3.13;1.58;;;18.00;93.20;;;17.87;78.53;97453.69;4963250;28;20430;-43
2022/07/14 03:13:08;;;;;;;3.63;1.60;;;17.90;93.50;;;17.85;79.62;97458.25;4962040;28;20201;-42
2022/07/14 03:15:34;;;;;;;2.97;1.58;;;17.90;93.80;;;17.79;80.40;97452.44;4963602;28;20063;-44
2022/07/14 03:18:01;;;;;;;3.63;1.95;;;17.80;94.20;;;17.74;80.78;97456.25;4963315;28;20067;-42
2022/07/14 03:20:28;;;;;;;2.08;1.60;;;17.80;94.80;;;17.71;81.39;97445.81;4959212;28;20027;-42
2022/07/14 03:22:53;;;;;;;2.53;1.48;;;17.70;94.70;;;17.67;81.29;97440.75;4966400;28;20026;-42
2022/07/14 03:25:20;;;;;;;3.20;1.23;;;17.70;94.80;;;17.67;81.10;97441.59;4963321;28;20550;-42
2022/07/14 03:27:46;;;;;;;2.78;1.42;;;17.70;94.80;;;17.65;80.53;97446.19;4961780;28;20118;-43
2022/07/14 03:30:13;;;;;;;1.80;1.40;;;17.70;94.80;;;17.65;80.79;97446.19;4964243;28;20117;-41
2022/07/14 03:32:39;;;;;;;2.97;1.83;;;17.70;94.90;;;17.64;81.40;97444.50;4960603;28;20030;-42
2022/07/14 03:35:07;;;;;;;2.13;1.33;;;17.70;95.10;;;17.61;81.45;97447.34;4959937;28;20034;-42
2022/07/14 03:37:36;;;;;;;2.95;1.52;;;17.70;95.30;;;17.61;80.66;97446.50;4966912;28;20035;-42
2022/07/14 03:40:04;;;;;;;2.47;1.23;;;17.70;95.10;;;17.57;79.58;97437.84;4959267;28;20480;-42
2022/07/14 03:42:30;;;;;;;1.10;0.95;;;17.70;94.90;;;17.55;78.58;97445.09;4961971;28;20117;-41
2022/07/14 03:44:56;;;;;;;1.35;1.17;;;17.60;94.60;;;17.57;77.67;97451.19;4961327;28;20364;-41
2022/07/14 03:47:22;;;;;;;2.80;1.10;;;17.60;94.40;;;17.57;76.40;97445.84;4957204;28;20305;-42
2022/07/14 03:49:49;;;;;;;1.80;1.15;;;17.60;94.00;;;17.61;75.42;97455.34;4962225;28;20160;-42
2022/07/14 03:52:15;;;;;;;2.17;1.20;;;17.70;93.80;;;17.63;74.32;97455.25;4959397;28;20031;-42
2022/07/14 03:54:45;;;;;;;1.20;1.10;;;17.70;93.60;;;17.71;73.54;97452.94;4960466;28;20081;-42
2022/07/14 03:57:12;;;;;;;1.20;0.90;;;17.70;93.30;;;17.76;72.83;97456.16;4963159;28;20486;-43
2022/07/14 03:59:40;;;;;;;1.63;1.17;;;17.80;93.10;;;17.82;71.67;97455.78;4963109;28;20138;-44
2022/07/14 04:02:10;;;;;;;1.15;0.98;;;17.80;92.80;;;17.84;70.26;97455.69;4953659;28;20027;-42
2022/07/14 04:04:37;;;;;;;1.20;0.85;;;17.80;92.50;;;17.90;69.48;97452.63;4962344;28;20130;-43
2022/07/14 04:07:04;;;;;;;0.82;0.82;;;17.90;92.20;;;17.90;68.88;97449.97;4963128;28;20057;-42
2022/07/14 04:09:30;;;;;;;0.90;0.85;;;17.90;92.00;;;17.94;68.08;97454.13;4963595;28;20035;-42
2022/07/14 04:11:56;;;;;;;1.13;0.93;;;17.90;91.70;;;17.95;67.61;97447.00;4957107;28;20120;-42
2022/07/14 04:14:22;;;;;;;1.88;0.80;;;17.90;91.50;;;18.01;66.86;97452.75;4962750;28;20034;-43
2022/07/14 04:16:48;;;;;;;1.10;0.82;;;18.00;91.30;;;18.01;66.71;97447.44;4952994;28;20515;-43
2022/07/14 04:19:14;;;;;;;0.80;0.80;;;18.10;91.30;;;18.04;66.57;97454.41;4961280;28;20051;-44
2022/07/14 04:21:40;;;;;;;1.17;0.88;;;18.00;91.20;;;18.00;66.78;97453.75;4959510;28;20034;-46
2022/07/14 04:24:06;;;;;;;1.30;0.88;;;18.00;91.20;;;18.03;67.28;97466.00;4961487;28;20049;-43
2022/07/14 04:26:32;;;;;;;1.15;0.90;;;18.00;91.50;;;17.98;67.81;97465.44;4957777;28;20487;-42
2022/07/14 04:28:58;;;;;;;1.10;0.95;;;18.00;91.60;;;17.99;68.25;97465.34;4955669;28;20046;-44
2022/07/14 04:31:23;;;;;;;1.45;1.00;;;18.00;91.70;;;17.97;68.84;97472.63;4951464;28;20734;-42
2022/07/14 04:33:49;;;;;;;1.77;0.65;;;18.00;91.90;;;17.97;68.55;97472.63;4955858;28;20041;-42
2022/07/14 04:36:16;;;;;;;1.55;1.00;;;18.00;91.90;;;17.98;69.68;97473.47;4958451;28;20054;-43
2022/07/14 04:38:42;;;;;;;0.80;0.80;;;18.00;92.20;;;17.99;71.22;97472.53;4956920;28;20498;-44
2022/07/14 04:41:08;;;;;;;1.95;1.13;;;18.00;92.70;;;18.02;71.36;97475.00;4961709;28;20035;-42
2022/07/14 04:43:33;;;;;;;2.67;1.00;;;18.10;92.90;;;18.08;70.65;97475.41;4955601;28;20088;-42
2022/07/14 04:45:59;;;;;;;1.83;0.80;;;18.10;92.70;;;18.12;69.74;97455.59;4958258;28;20027;-43
2022/07/14 04:48:25;;;;;;;1.52;1.13;;;18.20;92.40;;;18.29;68.16;97466.97;4960481;28;20030;-43
2022/07/14 04:53:37;;;;;;;1.65;0.90;;;18.40;91.70;;;18.54;65.36;97478.63;4955742;28;20394;-42
2022/07/14 04:56:03;;;;;;;1.23;0.93;;;18.60;91.20;;;18.51;65.28;97461.84;4959639;28;20027;-43
2022/07/14 04:58:30;;;;;;;1.77;1.20;;;18.70;91.00;;;18.72;66.90;97479.19;4963770;28;20089;-43
2022/07/14 05:00:59;;;;;;;2.63;1.10;;;18.80;91.40;;;18.78;66.27;97471.59;4959295;28;20059;-42
2022/07/14 05:03:25;;;;;;;1.95;0.95;;;18.80;91.30;;;18.85;66.83;97483.63;4946362;28;20030;-43
2022/07/14 05:05:52;;;;;;;2.10;1.00;;;18.90;91.40;;;18.87;67.01;97462.97;4953130;28;20182;-42
2022/07/14 05:08:18;;;;;;;1.30;0.90;;;18.90;91.60;;;19.02;68.26;97474.44;4964121;28;20039;-42
2022/07/14 05:10:43;;;;;;;1.95;0.90;;;19.00;92.00;;;19.13;68.43;97473.69;4957215;28;20073;-41
2022/07/14 05:13:09;;;;;;;2.25;1.10;;;19.10;92.10;;;19.33;67.94;97477.63;4957392;28;20109;-42
2022/07/14 05:15:35;;;;;;;1.40;1.10;;;19.30;92.00;;;19.61;65.09;97467.59;4953764;28;20471;-42
2022/07/14 05:18:00;;;;;;;1.92;1.00;;;19.50;91.40;;;20.28;62.04;97476.97;4951763;28;20054;-44
2022/07/14 05:20:26;;;;;;;1.55;1.10;;;19.90;91.10;;;21.15;58.00;97466.75;4956783;28;20213;-43
2022/07/14 05:22:52;;;;;;;2.80;1.30;;;20.50;89.40;;;22.22;53.94;97481.41;4959557;28;20042;-42
2022/07/14 05:25:17;;;;;;;6.93;1.00;;;21.10;87.40;;;23.04;51.24;97477.19;4961055;28;20486;-42
2022/07/14 05:27:44;;;;;;;2.92;1.50;;;21.80;85.60;;;23.60;48.62;97470.56;4962964;28;20069;-42
2022/07/14 05:30:11;;;;;;;1.15;0.98;;;22.30;82.60;;;24.44;47.64;97474.69;4960376;28;20452;-44
2022/07/14 05:32:37;;;;;;;1.60;1.20;;;22.80;81.90;;;25.15;45.35;97468.94;4961952;28;20031;-42
2022/07/14 05:35:04;;;;;;;1.48;0.95;;;23.50;79.80;;;25.45;45.21;97469.72;4958447;28;20069;-45
2022/07/14 05:37:30;;;;;;;1.92;1.15;;;24.00;78.90;;;25.41;43.91;97471.88;4963845;28;20034;-46
2022/07/14 05:39:56;;;;;;;2.85;1.30;;;24.20;77.30;;;25.02;44.06;97468.41;4965480;28;20077;-44
2022/07/14 05:42:22;;;;;;;1.92;1.20;;;24.10;74.80;;;24.44;44.38;97464.75;4959114;28;20042;-43
2022/07/14 05:44:49;;;;;;;3.25;1.17;;;23.90;74.40;;;24.12;45.89;97462.31;4964419;28;20038;-43
2022/07/14 05:47:16;;;;;;;2.00;1.50;;;23.60;75.60;;;23.86;45.84;97453.94;4964492;28;20439;-44
2022/07/14 05:49:43;;;;;;;4.10;1.35;;;23.50;75.80;;;23.77;46.31;97459.13;4958884;28;20042;-42
2022/07/14 05:52:13;;;;;;;2.10;1.33;;;23.40;76.30;;;23.73;46.15;97460.38;4959529;28;20046;-43
2022/07/14 05:54:39;;;;;;;3.28;1.63;;;23.30;76.00;;;23.66;45.92;97453.84;4951841;28;20042;-44
2022/07/14 05:57:05;;;;;;;2.20;1.23;;;23.30;75.90;;;23.52;46.65;97459.63;4959461;28;20059;-42
2022/07/14 05:59:31;;;;;;;1.27;1.17;;;23.20;75.70;;;23.40;47.11;97451.66;4956225;28;20113;-42
2022/07/14 06:01:56;;;;;;;2.15;1.33;;;23.10;76.30;;;23.31;47.37;97443.53;4958920;28;20077;-43
2022/07/14 06:04:22;;;;;;;3.00;1.20;;;23.10;76.70;;;23.44;47.29;97453.06;4960199;28;20039;-43
2022/07/14 06:06:48;;;;;;;1.50;1.20;;;23.20;76.60;;;23.52;47.92;97451.53;4959390;28;20134;-43
2022/07/14 06:09:15;;;;;;;3.17;1.13;;;23.30;76.80;;;23.69;47.99;97463.47;4962905;28;20144;-46
2022/07/14 06:11:43;;;;;;;3.10;1.55;;;23.40;77.20;;;23.82;47.98;97454.19;4965235;28;20122;-43
2022/07/14 06:14:10;;;;;;;1.60;1.23;;;23.60;77.50;;;24.01;47.90;97448.00;4959872;28;20061;-44
2022/07/14 06:16:36;;;;;;;1.70;1.25;;;23.80;78.20;;;24.12;47.45;97455.09;4957909;28;20275;-44
2022/07/14 06:19:02;;;;;;;2.47;1.52;;;23.90;76.60;;;24.05;47.67;97448.59;4959728;28;20259;-43
2022/07/14 06:21:28;;;;;;;2.95;1.40;;;23.90;76.50;;;23.93;47.94;97444.31;4963312;28;20042;-43
2022/07/14 06:23:54;;;;;;;4.10;1.80;;;23.80;76.40;;;24.00;47.72;97445.44;4945236;28;20030;-44
2022/07/14 06:26:19;;;;;;;3.65;1.80;;;23.90;76.70;;;24.09;47.79;97450.00;4964734;28;20581;-43
2022/07/14 06:28:46;;;;;;;3.45;1.75;;;24.00;76.70;;;24.02;47.86;97456.94;4959518;28;20031;-43
2022/07/14 06:31:13;;;;;;;3.72;1.70;;;23.90;76.50;;;23.98;47.88;97444.75;4963239;28;20209;-42
2022/07/14 06:33:39;;;;;;;4.55;1.80;;;23.90;76.70;;;23.99;47.84;97443.75;4953529;28;20027;-42
2022/07/14 06:36:06;;;;;;;2.70;1.55;;;23.90;76.90;;;24.10;47.87;97446.31;4960728;28;20037;-43
2022/07/14 06:38:32;;;;;;;4.18;1.60;;;24.00;76.70;;;24.04;48.16;97419.94;4958370;28;20689;-44
2022/07/14 06:40:58;;;;;;;2.88;1.60;;;24.00;76.60;;;24.21;47.76;97442.63;4960074;28;20042;-43
2022/07/14 06:43:23;;;;;;;3.20;1.45;;;24.10;76.50;;;24.42;46.59;97442.47;4959826;28;20039;-43
2022/07/14 06:45:49;;;;;;;4.43;1.75;;;24.20;75.90;;;24.58;45.81;97440.09;4956809;28;20073;-44
2022/07/14 06:48:15;;;;;;;4.65;2.15;;;24.40;74.60;;;24.67;46.08;97430.28;4987681;23;20046;-36
2022/07/14 06:50:41;;;;;;;2.25;1.40;;;24.50;74.50;;;24.80;45.97;97438.09;4979084;28;20038;-36
2022/07/14 06:53:08;;;;;;;3.38;1.50;;;24.60;74.30;;;24.92;45.98;97439.59;4976990;28;20072;-36
2022/07/14 06:55:34;;;;;;;1.50;1.27;;;24.80;74.20;;;25.13;45.73;97439.41;4975516;28;20026;-36
2022/07/14 06:57:59;;;;;;;2.58;1.25;;;25.00;74.10;;;25.37;45.77;97438.06;4969424;28;20034;-35
2022/07/14 07:00:25;;;;;;;2.42;1.50;;;25.20;74.90;;;25.64;45.04;97439.91;4965350;28;20037;-35
2022/07/14 07:02:51;;;;;;;4.95;1.70;;;25.50;73.10;;;25.91;43.44;97441.75;4961673;28;20522;-36
2022/07/14 07:08:01;;;;;;;2.47;1.52;;;26.00;71.00;;;26.29;42.50;97431.69;4961680;28;20041;-36
2022/07/14 07:10:27;;;;;;;2.08;1.40;;;26.10;69.70;;;26.43;42.15;97430.31;4967955;28;20039;-35
2022/07/14 07:12:54;;;;;;;1.85;1.40;;;26.30;69.70;;;26.58;42.45;97433.28;4962341;28;20078;-36
2022/07/14 07:15:20;;;;;;;2.15;1.23;;;26.40;69.80;;;26.74;42.24;97429.03;4945672;28;20114;-36
2022/07/14 07:17:46;;;;;;;2.38;1.40;;;26.60;69.50;;;26.97;42.00;97434.78;4958058;28;20488;-36
2022/07/14 07:20:12;;;;;;;2.88;1.80;;;26.80;69.00;;;27.30;41.26;97426.91;4956994;28;20034;-44
2022/07/14 07:22:38;;;;;;;2.97;1.85;;;27.10;68.00;;;27.68;38.97;97428.22;4958567;28;20039;-44
2022/07/14 07:25:06;;;;;;;3.22;1.42;;;27.50;65.80;;;28.03;38.22;97430.88;4957821;28;20117;-45
2022/07/14 07:27:32;;;;;;;2.58;1.40;;;27.80;63.90;;;28.17;38.08;97422.09;4958412;28;20089;-45
2022/07/14 07:30:02;;;;;;;3.10;1.42;;;27.90;63.40;;;28.25;37.85;97424.84;4960678;28;20090;-44
2022/07/14 07:32:28;;;;;;;3.72;1.55;;;28.00;63.50;;;28.28;38.26;97421.81;4964711;28;20081;-44
2022/07/14 07:34:54;;;;;;;1.75;1.20;;;28.00;63.30;;;28.30;38.10;97424.31;4964256;28;20034;-44
2022/07/14 07:37:21;;;;;;;4.95;1.65;;;28.00;63.60;;;28.32;38.99;97425.03;4956003;28;20240;-44
2022/07/14 07:39:47;;;;;;;2.15;1.30;;;28.00;64.20;;;28.32;39.34;97417.72;4962262;28;20030;-44
2022/07/14 07:42:13;;;;;;;4.28;1.58;;;28.00;64.70;;;28.33;39.04;97424.00;4964266;28;20062;-44
2022/07/14 07:44:39;;;;;;;1.90;1.70;;;28.00;64.70;;;28.23;38.96;97421.44;4962770;28;20062;-44
2022/07/14 07:47:05;;;;;;;1.67;1.50;;;28.00;65.00;;;28.13;39.63;97409.91;4954216;28;20109;-44
2022/07/14 07:49:31;;;;;;;3.15;1.52;;;27.90;64.60;;;28.16;38.96;97409.59;4940659;28;20446;-44
2022/07/14 07:52:01;;;;;;;5.28;1.58;;;28.00;64.80;;;28.29;38.77;97401.78;4960440;28;20031;-44
2022/07/14 07:54:28;;;;;;;3.47;1.85;;;28.10;64.00;;;28.49;38.05;97396.88;4964314;28;20077;-45
2022/07/14 07:56:55;;;;;;;5.05;1.70;;;28.30;62.80;;;28.71;37.18;97392.66;4964389;28;20043;-45
2022/07/14 07:59:22;;;;;;;4.00;2.00;;;28.50;62.20;;;28.94;35.82;97395.47;4961433;28;20035;-45
2022/07/14 08:01:47;;;;;;;2.72;1.75;;;28.70;60.10;;;28.96;35.57;97386.34;4959828;28;20046;-45
2022/07/14 08:04:16;;;;;;;4.38;1.80;;;28.80;59.20;;;29.11;35.71;97395.47;4962581;28;20444;-44
2022/07/14 08:06:42;;;;;;;6.38;1.80;;;28.90;59.50;;;29.28;36.04;97399.00;4958621;28;20039;-45
2022/07/14 08:09:12;;;;;;;2.03;1.58;;;29.00;59.80;;;29.54;35.18;97395.16;4961484;28;20098;-44
2022/07/14 08:11:42;;;;;;;4.93;1.90;;;29.30;59.00;;;29.65;33.56;97395.63;4959844;28;20499;-44
2022/07/14 08:14:47;;;;;;;2.75;1.52;;;29.40;57.40;;;29.69;32.50;97386.06;4962696;28;20035;-44
2022/07/14 08:16:57;;;;;;;2.97;1.67;;;29.40;55.40;;;29.66;30.62;97382.88;4958262;28;20038;-44
2022/07/14 08:19:23;;;;;;;2.00;1.38;;;29.40;52.90;;;29.65;30.49;97376.59;4959343;28;20042;-44
2022/07/14 08:21:49;;;;;;;1.67;1.33;;;29.30;52.70;;;29.45;30.08;97381.63;4959969;28;20034;-45
2022/07/14 08:24:15;;;;;;;1.90;1.48;;;29.20;51.80;;;29.27;31.39;97381.00;4957510;28;20038;-45
2022/07/14 08:26:40;;;;;;;3.40;1.38;;;29.10;53.00;;;29.16;31.23;97376.78;4963021;28;20033;-45
2022/07/14 08:29:07;;;;;;;3.80;1.20;;;28.90;52.60;;;29.18;31.66;97372.06;4955835;28;20046;-45
2022/07/14 08:31:33;;;;;;;1.77;1.48;;;29.00;53.90;;;29.16;31.37;97367.81;4959978;28;20037;-45
2022/07/14 08:33:59;;;;;;;3.00;1.42;;;28.90;53.40;;;29.12;31.68;97370.00;4957707;28;20031;-46
2022/07/14 08:36:26;;;;;;;1.60;1.40;;;28.90;53.20;;;29.00;29.86;97372.25;4960840;28;20462;-46
2022/07/14 08:38:51;;;;;;;1.52;1.33;;;28.80;50.70;;;28.94;30.63;97364.78;4956331;28;20042;-46
2022/07/14 08:41:18;;;;;;;2.65;1.20;;;28.80;51.20;;;28.87;30.58;97367.34;4957334;28;20427;-45
2022/07/14 08:43:45;;;;;;;4.80;1.20;;;28.60;51.90;;;28.89;30.86;97356.31;4956723;28;20308;-45
2022/07/14 08:46:11;;;;;;;2.47;1.60;;;28.70;52.50;;;28.87;31.75;97350.22;4941392;28;20073;-46
2022/07/14 08:48:37;;;;;;;1.80;1.45;;;28.70;52.80;;;28.91;31.25;97351.56;4965140;28;20058;-45
2022/07/14 08:51:05;;;;;;;2.17;1.30;;;28.60;52.90;;;28.85;30.43;97344.13;4959303;28;20374;-46
2022/07/14 08:53:31;;;;;;;6.45;2.00;;;28.70;51.60;;;28.90;30.48;97352.59;4939247;28;20031;-45
2022/07/14 08:55:58;;;;;;;1.95;1.40;;;28.60;51.70;;;28.96;30.97;97349.16;4962014;28;20037;-45
2022/07/14 08:58:24;;;;;;;3.13;1.50;;;28.80;52.00;;;29.00;30.18;97347.81;4963732;28;20045;-44
2022/07/14 09:00:50;;;;;;;3.17;1.55;;;28.90;51.60;;;29.08;31.07;97345.06;4957161;28;20459;-44
2022/07/14 09:03:16;;;;;;;4.35;1.30;;;28.90;51.70;;;29.16;31.22;97340.66;4953498;28;20039;-44
2022/07/14 09:05:44;;;;;;;2.13;1.60;;;28.90;53.60;;;29.23;30.27;97345.19;4958696;28;20364;-45
2022/07/14 09:08:12;;;;;;;1.95;1.45;;;29.10;51.80;;;29.34;30.73;97343.13;4962127;28;20034;-45
2022/07/14 09:10:41;;;;;;;2.20;1.40;;;29.10;51.80;;;29.53;31.35;97331.81;4963755;28;20058;-45
2022/07/14 09:13:19;;;;;;;2.47;1.40;;;29.30;52.40;;;29.69;31.67;97322.75;4965067;28;20035;-45
2022/07/14 09:15:46;;;;;;;1.45;1.27;;;29.50;53.20;;;29.75;28.77;97332.91;4967154;28;20053;-44
2022/07/14 09:18:25;;;;;;;1.67;1.50;;;29.60;49.40;;;29.90;29.69;97322.13;4963152;28;20398;-45
2022/07/14 09:20:54;;;;;;;4.95;1.27;;;29.60;51.10;;;30.08;28.78;97328.09;4959549;28;20524;-45
2022/07/14 09:23:46;;;;;;;4.05;1.50;;;29.80;49.20;;;30.34;27.63;97316.00;4960424;28;20035;-45
2022/07/14 09:26:19;;;;;;;1.80;1.50;;;30.10;48.00;;;30.58;27.46;97314.94;4963448;28;20047;-44
2022/07/14 09:28:48;;;;;;;1.92;1.48;;;30.30;48.20;;;30.58;26.76;97311.34;4962281;28;20403;-45
2022/07/14 09:31:30;;;;;;;4.55;1.35;;;30.30;46.10;;;30.50;27.17;97317.72;4966138;28;20022;-45
2022/07/14 09:34:02;;;;;;;2.15;1.10;;;30.30;46.60;;;30.35;26.39;97304.09;4966682;28;20113;-44
2022/07/14 09:36:34;;;;;;;2.65;1.40;;;30.20;45.70;;;30.34;27.11;97301.56;4965903;28;20133;-45
2022/07/14 09:39:10;;;;;;;9.27;2.08;;;30.10;46.90;;;30.36;27.39;97300.34;4956474;28;20058;-45
2022/07/14 09:41:50;;;;;;;1.55;1.20;;;30.20;47.80;;;30.42;26.91;97301.50;4961553;28;20510;-44
2022/07/14 09:44:18;;;;;;;4.00;1.77;;;30.20;46.10;;;30.48;26.08;97308.06;4970701;28;20101;-44
2022/07/14 09:46:57;;;;;;;2.20;1.30;;;30.30;45.40;;;30.59;26.05;97305.72;4962177;28;20038;-44
2022/07/14 09:49:30;;;;;;;2.15;1.45;;;30.30;45.10;;;30.57;26.82;97299.63;4965283;28;20037;-45
2022/07/14 09:51:59;;;;;;;;;;;30.40;45.30;;;30.61;27.14;97297.38;4956724;28;20035;-44
2022/07/14 09:54:37;;;;;;;1.65;1.30;;;30.40;46.20;;;30.52;26.19;97293.91;4962195;28;20191;-44
2022/07/14 09:57:20;;;;;;;2.75;1.40;;;30.30;45.10;;;30.48;26.44;97292.59;4961988;28;20038;-45
2022/07/14 09:59:54;;;;;;;3.38;1.52;;;30.20;45.60;;;30.35;25.87;97287.78;4969515;28;20097;-44
2022/07/14 10:02:29;;;;;;;2.53;1.92;;;30.10;44.30;;;30.32;28.24;97282.66;4963293;28;20035;-45
2022/07/14 10:05:07;;;;;;;4.53;2.03;;;30.10;46.80;;;30.37;27.72;97280.28;4968793;28;20023;-45
2022/07/14 10:07:36;;;;;;;3.33;1.27;;;30.10;46.90;;;30.44;26.13;97280.41;4966104;28;20054;-45
2022/07/14 10:10:09;;;;;;;1.48;1.17;;;30.20;45.20;;;30.58;26.67;97282.28;4967575;28;20027;-45
2022/07/14 10:12:37;;;;;;;2.60;1.60;;;30.30;45.60;;;30.68;25.16;97278.44;4963718;28;20162;-45
2022/07/14 10:15:08;;;;;;;4.68;1.35;;;30.50;44.30;;;30.75;25.98;97271.22;4971604;28;20471;-44
2022/07/14 10:17:36;;;;;;;2.10;1.40;;;30.50;43.90;;;30.89;25.68;97274.97;4968553;28;20050;-46
2022/07/14 10:20:06;;;;;;;1.30;1.17;;;30.60;44.40;;;30.92;25.09;97270.03;4970189;28;20038;-46
2022/07/14 10:22:32;;;;;;;1.45;1.30;;;30.70;43.30;;;31.10;25.95;97276.94;4963336;28;20121;-46
2022/07/14 10:24:58;;;;;;;3.53;1.60;;;30.80;44.50;;;31.28;25.97;97271.09;4963466;28;20088;-45
2022/07/14 10:27:26;;;;;;;1.58;1.40;;;31.00;44.50;;;31.51;26.93;97269.06;4964567;28;20047;-46